createdAt,value
2023-10-02T01:13:30.346Z,2.20
2023-10-02T01:15:58.082Z,2.10
2023-10-02T01:18:28.425Z,1.50
2023-10-02T01:20:57.596Z,1.60
2023-10-02T01:23:26.386Z,1.90
2023-10-02T01:25:57.942Z,1.90
2023-10-02T01:28:26.509Z,2.10
2023-10-02T01:30:56.196Z,2.30
2023-10-02T01:33:26.844Z,2.30
2023-10-02T01:35:56.490Z,1.70
2023-10-02T01:38:34.879Z,1.60
2023-10-02T01:41:06.133Z,2.20
2023-10-02T01:43:46.651Z,2.50
2023-10-02T01:46:18.402Z,2.60
2023-10-02T01:48:45.519Z,2.00
2023-10-02T01:51:29.112Z,2.60
2023-10-02T01:53:58.558Z,1.40
2023-10-02T01:56:30.279Z,2.20
2023-10-02T01:59:12.660Z,2.20
2023-10-02T02:01:52.905Z,2.30
2023-10-02T02:04:24.507Z,2.10
2023-10-02T02:06:53.102Z,2.30
2023-10-02T02:09:26.795Z,2.70
2023-10-02T02:12:08.532Z,1.90
2023-10-02T02:14:41.977Z,2.00
2023-10-02T02:17:11.665Z,2.20
2023-10-02T02:19:45.657Z,2.20
2023-10-02T02:22:12.550Z,2.50
2023-10-02T02:24:39.605Z,2.10
2023-10-02T02:27:08.615Z,2.40
2023-10-02T02:29:35.729Z,1.50
2023-10-02T02:32:03.228Z,1.80
2023-10-02T02:34:31.170Z,2.00
2023-10-02T02:36:58.624Z,2.20
2023-10-02T02:39:27.954Z,2.00
2023-10-02T02:42:17.621Z,2.50
2023-10-02T02:44:51.432Z,2.10
2023-10-02T02:47:20.923Z,1.70
2023-10-02T02:50:01.153Z,2.30
2023-10-02T02:52:33.269Z,2.20
2023-10-02T02:55:13.693Z,2.40
2023-10-02T02:57:45.954Z,2.20
2023-10-02T03:00:32.582Z,2.00
2023-10-02T03:03:01.206Z,2.20
2023-10-02T03:05:38.935Z,1.60
2023-10-02T03:08:06.489Z,2.10
2023-10-02T03:10:41.170Z,2.30
2023-10-02T03:13:16.411Z,2.10
2023-10-02T03:15:47.285Z,2.40
2023-10-02T03:18:24.051Z,1.60
2023-10-02T03:20:51.535Z,3.00
2023-10-02T03:23:19.195Z,2.20
2023-10-02T03:25:48.430Z,2.50
2023-10-02T03:28:32.983Z,2.30
2023-10-02T03:31:01.364Z,2.60
2023-10-02T03:33:32.091Z,2.60
2023-10-02T03:36:09.243Z,2.00
2023-10-02T03:38:43.333Z,2.20
2023-10-02T03:41:14.398Z,2.60
2023-10-02T03:43:46.184Z,2.30
2023-10-02T03:46:36.774Z,2.70
2023-10-02T03:49:04.934Z,2.30
2023-10-02T03:51:41.600Z,2.30
2023-10-02T03:54:18.710Z,2.40
2023-10-02T03:56:48.661Z,2.80
2023-10-02T03:59:21.951Z,2.20
2023-10-02T04:04:17.843Z,2.80
2023-10-02T04:06:44.820Z,2.80
2023-10-02T04:09:12.758Z,1.80
2023-10-02T04:11:40.416Z,2.10
2023-10-02T04:14:19.813Z,2.40
2023-10-02T04:16:52.650Z,2.80
2023-10-02T04:19:26.125Z,2.70
2023-10-02T04:24:27.183Z,2.80
2023-10-02T04:30:02.167Z,2.40
2023-10-02T04:32:33.101Z,2.80
2023-10-02T04:35:03.622Z,2.10
2023-10-02T04:37:37.193Z,2.60
2023-10-02T04:40:17.428Z,2.60
2023-10-02T04:43:10.318Z,2.20
2023-10-02T04:45:37.567Z,2.20
2023-10-02T04:48:11.336Z,2.10
2023-10-02T04:50:46.023Z,2.60
2023-10-02T04:53:16.028Z,2.90
2023-10-02T04:55:44.456Z,2.60
2023-10-02T04:58:19.759Z,1.90
2023-10-02T05:01:03.741Z,2.20
2023-10-02T05:03:31.989Z,2.20
2023-10-02T05:06:00.014Z,2.20
2023-10-02T05:09:22.085Z,2.30
2023-10-02T05:11:53.694Z,2.80
2023-10-02T05:14:32.797Z,1.90
2023-10-02T05:17:17.966Z,2.10
2023-10-02T05:19:58.684Z,2.20
2023-10-02T05:22:28.440Z,2.20
2023-10-02T05:25:05.194Z,2.20
2023-10-02T05:27:34.367Z,2.30
2023-10-02T05:30:05.995Z,1.90
2023-10-02T05:32:33.486Z,2.50
2023-10-02T05:35:17.255Z,2.20
2023-10-02T05:37:46.840Z,2.40
2023-10-02T05:40:19.266Z,2.70
2023-10-02T05:43:02.893Z,2.90
2023-10-02T05:45:45.513Z,2.30
2023-10-02T05:48:28.378Z,2.40
2023-10-02T05:51:00.021Z,2.70
2023-10-02T05:53:29.980Z,2.50
2023-10-02T05:56:06.734Z,2.50
2023-10-02T05:58:37.891Z,3.60
2023-10-02T06:01:07.396Z,1.90
2023-10-02T06:03:35.437Z,2.20
2023-10-02T06:06:16.124Z,2.00
2023-10-02T06:08:50.577Z,2.70
2023-10-02T06:11:27.448Z,2.40
2023-10-02T06:13:59.128Z,2.50
2023-10-02T06:16:30.392Z,2.40
2023-10-02T06:19:03.815Z,1.80
2023-10-02T06:21:55.529Z,2.30
2023-10-02T06:24:28.626Z,2.70
2023-10-02T06:26:58.417Z,2.40
2023-10-02T06:29:26.694Z,2.40
2023-10-02T06:31:59.166Z,1.90
2023-10-02T06:34:34.615Z,3.00
2023-10-02T06:37:08.168Z,2.60
2023-10-02T06:42:05.691Z,2.00
2023-10-02T06:44:42.568Z,2.40
2023-10-02T06:47:12.396Z,2.50
2023-10-02T06:49:40.963Z,2.60
2023-10-02T06:52:17.949Z,2.20
2023-10-02T06:54:56.767Z,2.00
2023-10-02T06:57:25.865Z,2.00
2023-10-02T06:59:53.352Z,2.20
2023-10-02T07:02:20.972Z,2.30
2023-10-02T07:04:49.561Z,2.40
2023-10-02T07:07:27.340Z,1.60
2023-10-02T07:09:55.787Z,2.20
2023-10-02T07:12:28.522Z,2.10
2023-10-02T07:15:11.443Z,1.90
2023-10-02T07:17:49.186Z,2.40
2023-10-02T07:20:21.683Z,2.50
2023-10-02T07:22:49.327Z,2.40
2023-10-02T07:25:25.448Z,2.30
2023-10-02T07:27:52.896Z,2.10
2023-10-02T07:30:26.742Z,2.10
2023-10-02T07:32:54.431Z,2.50
2023-10-02T07:35:24.877Z,2.70
2023-10-02T07:38:01.356Z,2.20
2023-10-02T07:40:47.123Z,2.30
2023-10-02T07:43:17.706Z,2.10
2023-10-02T07:46:09.113Z,2.30
2023-10-02T07:48:36.393Z,2.00
2023-10-02T07:51:04.422Z,2.30
2023-10-02T07:53:40.690Z,2.30
2023-10-02T07:56:09.131Z,2.50
2023-10-02T07:58:36.629Z,2.50
2023-10-02T08:01:11.911Z,3.00
2023-10-02T08:03:50.670Z,2.30
2023-10-02T08:06:22.672Z,2.20
2023-10-02T08:09:22.989Z,2.30
2023-10-02T08:11:54.139Z,1.70
2023-10-02T08:14:41.364Z,2.30
2023-10-02T08:17:22.815Z,2.60
2023-10-02T08:20:00.105Z,2.30
2023-10-02T08:22:36.179Z,1.90
2023-10-02T08:25:04.955Z,2.10
2023-10-02T08:27:33.041Z,2.20
2023-10-02T08:30:02.427Z,2.30
2023-10-02T08:32:29.878Z,2.50
2023-10-02T08:34:58.035Z,1.60
2023-10-02T08:37:26.702Z,2.00
2023-10-02T08:39:53.736Z,1.60
2023-10-02T08:42:24.838Z,1.70
2023-10-02T08:44:59.058Z,1.90
2023-10-02T08:47:26.108Z,2.30
2023-10-02T08:50:04.555Z,2.30
2023-10-02T08:52:48.105Z,2.50
2023-10-02T08:55:34.143Z,2.00
2023-10-02T08:58:17.884Z,2.20
2023-10-02T09:01:11.910Z,1.50
2023-10-02T09:03:44.126Z,2.10
2023-10-02T09:14:20.852Z,1.90
2023-10-02T09:24:29.363Z,2.20
2023-10-02T09:35:39.791Z,2.10
2023-10-02T09:38:07.865Z,1.70
2023-10-02T09:40:55.003Z,2.20
2023-10-02T09:43:24.306Z,2.10
2023-10-02T09:45:56.459Z,1.90
2023-10-02T09:48:54.234Z,2.10
2023-10-02T09:51:27.585Z,1.90
2023-10-02T09:54:33.073Z,2.60
2023-10-02T09:57:06.477Z,8.40
2023-10-02T09:59:47.510Z,2.50
2023-10-02T10:02:41.074Z,2.10
2023-10-02T10:05:08.152Z,2.40
2023-10-02T10:08:04.461Z,2.20
2023-10-02T10:10:48.280Z,2.20
2023-10-02T10:13:38.543Z,2.70
2023-10-02T10:16:21.506Z,2.30
2023-10-02T10:19:10.115Z,1.80
2023-10-02T10:21:56.646Z,2.30
2023-10-02T10:24:32.514Z,2.10
2023-10-02T10:26:59.555Z,2.20
2023-10-02T10:29:41.954Z,2.00
2023-10-02T10:32:17.281Z,2.10
2023-10-02T10:35:14.262Z,2.40
2023-10-02T10:37:48.708Z,2.10
2023-10-02T10:40:52.082Z,2.10
2023-10-02T10:43:19.458Z,2.00
2023-10-02T10:45:49.057Z,2.30
2023-10-02T10:48:24.999Z,2.50
2023-10-02T10:51:07.288Z,2.20
2023-10-02T10:53:34.229Z,2.10
2023-10-02T10:56:08.809Z,1.80
2023-10-02T10:58:35.715Z,2.40
2023-10-02T11:01:13.930Z,2.70
2023-10-02T11:03:42.611Z,1.90
2023-10-02T11:06:16.424Z,2.40
2023-10-02T11:08:45.399Z,2.60
2023-10-02T11:11:19.906Z,2.50
2023-10-02T11:14:10.879Z,2.00
2023-10-02T11:16:38.641Z,1.70
2023-10-02T11:19:22.423Z,1.90
2023-10-02T11:22:16.639Z,2.00
2023-10-02T11:24:54.222Z,2.40
2023-10-02T11:27:22.193Z,2.20
2023-10-02T11:30:04.801Z,2.50
2023-10-02T11:32:54.430Z,2.40
2023-10-02T11:35:22.441Z,2.20
2023-10-02T11:37:50.235Z,2.40
2023-10-02T11:40:17.148Z,2.50
2023-10-02T11:42:44.084Z,2.40
2023-10-02T11:45:12.476Z,2.10
2023-10-02T11:47:39.495Z,2.30
2023-10-02T11:50:07.368Z,3.70
2023-10-02T11:52:34.435Z,2.60
2023-10-02T11:55:01.525Z,2.50
2023-10-02T11:57:29.454Z,2.10
2023-10-02T11:59:56.239Z,2.90
2023-10-02T12:02:23.270Z,2.70
2023-10-02T12:04:53.112Z,2.00
2023-10-02T12:07:20.327Z,2.70
2023-10-02T12:09:48.180Z,2.50
2023-10-02T12:12:15.124Z,3.00
2023-10-02T12:14:44.528Z,3.00
2023-10-02T12:17:14.987Z,2.70
2023-10-02T12:19:43.327Z,2.40
2023-10-02T12:22:10.474Z,2.80
2023-10-02T12:24:37.646Z,2.70
2023-10-02T12:27:11.328Z,3.80
2023-10-02T12:29:39.141Z,3.60
2023-10-02T12:32:06.595Z,3.90
2023-10-02T12:34:35.258Z,2.70
2023-10-02T12:37:03.720Z,2.50
2023-10-02T12:39:31.593Z,2.60
2023-10-02T12:41:58.649Z,2.40
2023-10-02T12:44:25.628Z,2.90
2023-10-02T12:46:52.821Z,2.90
2023-10-02T12:49:21.082Z,2.50
2023-10-02T12:51:50.810Z,3.00
2023-10-02T12:54:17.672Z,2.70
2023-10-02T12:56:46.371Z,3.10
2023-10-02T12:59:13.708Z,2.90
2023-10-02T13:01:41.783Z,2.90
2023-10-02T13:04:08.904Z,2.20
2023-10-02T13:06:35.951Z,3.20
2023-10-02T13:09:11.236Z,2.70
2023-10-02T13:11:40.804Z,3.20
2023-10-02T13:14:12.330Z,2.40
2023-10-02T13:16:43.009Z,3.20
2023-10-02T13:19:10.438Z,3.00
2023-10-02T13:21:52.723Z,3.00
2023-10-02T13:24:24.084Z,2.70
2023-10-02T13:26:54.300Z,3.10
2023-10-02T13:29:23.895Z,2.90
2023-10-02T13:31:52.614Z,2.70
2023-10-02T13:34:20.943Z,2.50
2023-10-02T13:36:48.159Z,2.70
2023-10-02T13:39:17.872Z,2.50
2023-10-02T13:41:46.141Z,2.40
2023-10-02T13:44:13.042Z,3.20
2023-10-02T13:46:40.690Z,3.60
2023-10-02T13:49:09.843Z,2.60
2023-10-02T13:51:37.830Z,2.40
2023-10-02T13:54:05.792Z,2.90
2023-10-02T13:56:36.989Z,2.90
2023-10-02T13:59:04.952Z,2.40
2023-10-02T14:01:34.901Z,2.70
2023-10-02T14:04:02.205Z,2.90
2023-10-02T14:06:30.647Z,2.70
2023-10-02T14:08:58.317Z,2.50
2023-10-02T14:11:26.509Z,2.60
2023-10-02T14:14:00.962Z,3.20
2023-10-02T14:16:28.592Z,2.30
2023-10-02T14:18:57.553Z,2.60
2023-10-02T14:21:26.828Z,2.90
2023-10-02T14:23:54.683Z,2.70
2023-10-02T14:26:25.854Z,2.80
2023-10-02T14:28:53.793Z,2.90
2023-10-02T14:31:33.548Z,3.10
2023-10-02T14:34:02.051Z,2.50
2023-10-02T14:36:29.845Z,3.00
2023-10-02T14:38:58.010Z,3.60
2023-10-02T14:41:26.571Z,3.10
2023-10-02T14:43:54.617Z,3.10
2023-10-02T14:46:22.318Z,3.00
2023-10-02T14:48:49.291Z,3.10
2023-10-02T14:51:18.514Z,3.20
2023-10-02T14:53:46.238Z,2.90
2023-10-02T14:56:13.386Z,2.40
2023-10-02T14:58:47.701Z,2.60
2023-10-02T15:01:17.565Z,3.00
2023-10-02T15:03:44.712Z,3.30
2023-10-02T15:06:12.951Z,3.10
2023-10-02T15:08:40.939Z,2.80
2023-10-02T15:11:08.609Z,3.30
2023-10-02T15:13:37.457Z,2.70
2023-10-02T15:16:11.240Z,3.70
2023-10-02T15:18:38.913Z,3.10
2023-10-02T15:21:09.066Z,2.70
2023-10-02T15:26:12.837Z,3.00
2023-10-02T15:28:40.763Z,2.90
2023-10-02T15:31:09.038Z,2.80
2023-10-02T15:33:37.408Z,2.80
2023-10-02T15:36:06.193Z,3.10
2023-10-02T15:38:33.915Z,3.10
2023-10-02T15:41:03.203Z,3.10
2023-10-02T15:43:31.256Z,2.80
2023-10-02T15:46:05.208Z,2.90
2023-10-02T15:48:35.189Z,2.80
2023-10-02T15:51:02.897Z,2.50
2023-10-02T15:53:30.618Z,2.60
2023-10-02T15:55:58.424Z,2.50
2023-10-02T15:58:28.954Z,3.80
2023-10-02T16:00:58.622Z,2.80
2023-10-02T16:03:27.621Z,2.80
2023-10-02T16:05:55.522Z,2.70
2023-10-02T16:08:23.109Z,2.70
2023-10-02T16:10:50.755Z,3.20
2023-10-02T16:13:18.632Z,3.40
2023-10-02T16:15:46.487Z,3.20
2023-10-02T16:18:14.519Z,3.40
2023-10-02T16:28:31.929Z,3.00
2023-10-02T16:38:48.740Z,2.90
2023-10-02T16:41:23.371Z,3.50
2023-10-02T16:51:29.572Z,3.50
2023-10-02T16:53:57.292Z,3.50
2023-10-02T16:56:25.444Z,2.20
2023-10-02T16:58:53.263Z,2.70
2023-10-02T17:01:21.071Z,2.70
2023-10-02T17:03:51.487Z,3.20
2023-10-02T17:06:19.511Z,3.10
2023-10-02T17:08:49.626Z,3.80
2023-10-02T17:18:56.280Z,3.80
2023-10-02T17:21:30.831Z,3.90
2023-10-02T17:23:58.787Z,3.20
2023-10-02T17:26:26.612Z,3.70
2023-10-02T17:28:54.596Z,4.70
2023-10-02T17:31:28.036Z,2.60
2023-10-02T17:36:29.011Z,3.40
2023-10-02T17:38:56.796Z,3.40
2023-10-02T17:41:24.707Z,4.00
2023-10-02T17:51:37.834Z,4.20
2023-10-02T17:54:05.788Z,4.10
2023-10-02T17:56:33.611Z,4.50
2023-10-02T17:59:01.474Z,4.20
2023-10-02T18:01:29.545Z,4.70
2023-10-02T18:03:58.972Z,3.50
2023-10-02T18:06:26.763Z,3.70
2023-10-02T18:08:54.438Z,4.30
2023-10-02T18:11:26.463Z,4.70
2023-10-02T18:13:54.140Z,4.60
2023-10-02T18:16:22.129Z,4.40
2023-10-02T18:18:49.774Z,4.10
2023-10-02T18:21:20.153Z,4.30
2023-10-02T18:23:48.278Z,4.00
2023-10-02T18:26:16.063Z,4.60
2023-10-02T18:28:44.029Z,4.10
2023-10-02T18:31:12.260Z,3.00
2023-10-02T18:33:40.251Z,3.50
2023-10-02T18:36:10.434Z,3.90
2023-10-02T18:38:38.607Z,4.00
2023-10-02T18:41:12.116Z,4.00
2023-10-02T18:46:09.062Z,4.00
2023-10-02T18:48:36.878Z,3.50
2023-10-02T18:51:04.540Z,4.20
2023-10-02T18:53:36.699Z,4.50
2023-10-02T18:56:05.966Z,3.40
2023-10-02T18:58:33.797Z,2.90
2023-10-02T19:01:01.424Z,4.30
2023-10-02T19:03:29.914Z,3.60
2023-10-02T19:06:00.786Z,4.00
2023-10-02T19:08:28.533Z,4.40
2023-10-02T19:10:56.815Z,4.30
2023-10-02T19:13:24.601Z,4.40
2023-10-02T19:15:52.548Z,4.10
2023-10-02T19:18:20.362Z,4.00
2023-10-02T19:20:48.076Z,3.30
2023-10-02T19:30:55.283Z,3.80
2023-10-02T19:33:24.207Z,4.30
2023-10-02T19:35:51.933Z,4.10
2023-10-02T19:38:19.628Z,4.50
2023-10-02T19:40:47.358Z,3.80
2023-10-02T19:43:15.636Z,4.80
2023-10-02T19:45:45.892Z,3.10
2023-10-02T19:48:13.757Z,2.90
2023-10-02T19:50:41.698Z,4.00
2023-10-02T19:53:09.492Z,3.60
2023-10-02T19:55:37.227Z,4.00
2023-10-02T19:58:05.407Z,3.40
2023-10-02T20:00:35.052Z,3.90
2023-10-02T20:10:41.220Z,3.20
2023-10-02T20:13:09.685Z,3.10
2023-10-02T20:15:38.296Z,4.00
2023-10-02T20:18:07.725Z,3.30
2023-10-02T20:20:35.766Z,3.90
2023-10-02T20:30:42.302Z,4.40
2023-10-02T20:33:10.804Z,3.30
2023-10-02T20:35:40.183Z,3.70
2023-10-02T20:38:07.849Z,4.40
2023-10-02T20:40:35.578Z,5.20
2023-10-02T20:50:48.549Z,4.30
2023-10-02T20:53:16.393Z,4.60
2023-10-02T21:03:28.323Z,3.80
2023-10-02T21:05:56.201Z,4.00
2023-10-02T21:08:25.490Z,4.30
2023-10-02T21:10:53.945Z,3.80
2023-10-02T21:13:21.672Z,3.80
2023-10-02T21:15:49.392Z,4.60
2023-10-02T21:18:20.097Z,2.90
2023-10-02T21:20:50.041Z,3.50
2023-10-02T21:30:54.974Z,3.40
2023-10-02T21:33:24.106Z,4.60
2023-10-02T21:36:02.007Z,4.20
2023-10-02T21:38:29.632Z,3.80
2023-10-02T21:40:57.333Z,4.10
2023-10-02T21:49:38.606Z,4.70
2023-10-02T21:52:06.198Z,4.10
2023-10-02T21:54:35.875Z,3.70
2023-10-02T21:57:04.264Z,4.20
2023-10-02T21:59:31.958Z,4.90
2023-10-02T22:02:00.912Z,3.10
2023-10-02T22:04:28.599Z,3.70
2023-10-02T22:06:56.443Z,3.70
2023-10-02T22:09:24.706Z,3.90
2023-10-02T22:11:52.315Z,3.50
2023-10-02T22:22:07.186Z,4.70
2023-10-02T22:24:35.463Z,4.80
2023-10-02T22:27:03.834Z,5.20
2023-10-02T22:29:31.968Z,3.00
2023-10-02T22:32:00.968Z,4.20
2023-10-02T22:37:02.098Z,4.20
2023-10-02T22:39:30.137Z,5.30
2023-10-02T22:41:57.802Z,4.40
2023-10-02T22:44:25.563Z,5.20
2023-10-02T22:54:21.025Z,3.80
2023-10-02T23:04:32.146Z,5.10
2023-10-02T23:07:00.435Z,5.20
2023-10-02T23:16:27.986Z,4.90
2023-10-02T23:18:54.875Z,3.40
2023-10-02T23:21:21.838Z,4.30
2023-10-02T23:23:49.858Z,4.80
2023-10-02T23:26:18.055Z,5.20
2023-10-02T23:28:46.648Z,4.70
2023-10-02T23:31:13.862Z,5.40
2023-10-02T23:33:42.664Z,6.10
2023-10-02T23:36:11.570Z,7.40
2023-10-02T23:38:38.771Z,4.90
2023-10-02T23:41:07.737Z,5.50
2023-10-02T23:43:34.790Z,5.90
2023-10-02T23:46:02.153Z,6.20
2023-10-02T23:48:30.833Z,5.90
2023-10-02T23:50:58.156Z,6.60
2023-10-02T23:53:26.337Z,5.80
2023-10-02T23:56:00.364Z,6.70
2023-10-02T23:58:28.421Z,6.70
